Guaraniacu, Brazil
Current Conditions -  °F | °C
As of 11:00 AM on Thursday 18 Dec 2014 (Local Time) from SBCA Reporting Station
Broken Clouds Broken Clouds  
Wind Chill: 77°   Ceiling: 9000
Heat Index: 79°   Visibility: 6mi
Dew Point: 61°   Wind: 9mph
Humidity: 57%   Direction: 320°NW
Pressure: 29.97"   Gusts: NA
Location:  25.1°S, 52.88°W
Report Text: SBCA 181300Z 32008KT 9999 FEW025 BKN090 25/16 Q1015
Loading
Personal Weather Stations






























Interactive Weather Map New forecast layout! Learn more

10-Day Weather Forecast

Advertisements
Track Severe Weather on mobile